Terminal Aerodrome Forecast
Issued by NWS

Home | Current Version | Previous Version | Text Only | Print | Product List | Glossary On
Versions: 1 2 3 4 5 6 7 8 9 10 11 12 13 14 15
000
FTUS44 KOUN 241136 CCA
TAFGAG
TAF COR
KGAG 241136Z 2412/2512 26003KT 2SM BR SCT250
      TEMPO 2412/2414 1/4SM FG VV005
     FM241500 19008KT P6SM SCT250=

USA.gov is the U.S. government's official web portal to all federal, state and local government web resources and services.